createdAt,value
2019-05-26T00:01:19.160Z,12.60
2019-05-26T00:03:48.258Z,12.70
2019-05-26T00:06:16.681Z,12.70
2019-05-26T00:08:45.111Z,12.70
2019-05-26T00:11:13.538Z,12.60
2019-05-26T00:13:41.964Z,12.50
2019-05-26T00:16:10.408Z,12.40
2019-05-26T00:18:38.830Z,12.50
2019-05-26T00:21:07.333Z,12.50
2019-05-26T00:23:35.764Z,12.40
2019-05-26T00:26:04.206Z,12.20
2019-05-26T00:28:32.643Z,12.10
2019-05-26T00:31:01.069Z,12.10
2019-05-26T00:33:29.524Z,12.10
2019-05-26T00:35:58.012Z,12.00
2019-05-26T00:38:26.432Z,12.00
2019-05-26T00:40:54.864Z,12.10
2019-05-26T00:43:23.283Z,12.00
2019-05-26T00:45:51.735Z,11.90
2019-05-26T00:48:20.156Z,11.90
2019-05-26T00:50:48.583Z,11.90
2019-05-26T00:53:17.017Z,11.90
2019-05-26T00:55:46.200Z,11.90
2019-05-26T00:58:14.624Z,11.90
2019-05-26T01:00:43.796Z,11.90
2019-05-26T01:03:13.077Z,11.80
2019-05-26T01:05:41.585Z,11.70
2019-05-26T01:08:10.243Z,11.60
2019-05-26T01:10:38.677Z,11.50
2019-05-26T01:13:26.440Z,11.50
2019-05-26T01:15:54.867Z,11.50
2019-05-26T01:18:23.296Z,11.40
2019-05-26T01:20:51.728Z,11.30
2019-05-26T01:23:20.152Z,11.30
2019-05-26T01:25:48.587Z,11.20
2019-05-26T01:28:17.018Z,11.30
2019-05-26T01:30:45.740Z,11.20
2019-05-26T01:33:14.223Z,11.20
2019-05-26T01:35:42.723Z,11.10
2019-05-26T01:38:23.196Z,11.20
2019-05-26T01:40:43.532Z,11.10
2019-05-26T01:43:12.108Z,11.10
2019-05-26T01:45:40.540Z,11.00
2019-05-26T01:48:09.200Z,11.00
2019-05-26T01:50:37.905Z,11.00
2019-05-26T01:53:06.871Z,10.90
2019-05-26T01:55:35.371Z,10.90
2019-05-26T01:58:03.959Z,10.80
2019-05-26T02:00:32.405Z,10.80
2019-05-26T02:03:00.824Z,10.70
2019-05-26T02:05:29.264Z,10.60
2019-05-26T02:07:57.694Z,10.60
2019-05-26T02:10:26.135Z,10.70
2019-05-26T02:12:54.574Z,10.70
2019-05-26T02:15:23.541Z,10.60
2019-05-26T02:17:51.965Z,10.60
2019-05-26T02:20:21.141Z,10.60
2019-05-26T02:22:49.575Z,10.60
2019-05-26T02:25:20.104Z,10.60
2019-05-26T02:27:48.555Z,10.60
2019-05-26T02:30:19.426Z,10.60
2019-05-26T02:32:48.557Z,10.60
2019-05-26T02:35:17.484Z,10.60
2019-05-26T02:37:45.909Z,10.60
2019-05-26T02:40:15.694Z,10.50
2019-05-26T02:42:44.195Z,10.50
2019-05-26T02:45:16.557Z,10.40
2019-05-26T02:47:46.205Z,10.40
2019-05-26T02:50:16.289Z,10.40
2019-05-26T02:52:44.827Z,10.40
2019-05-26T02:55:13.855Z,10.30
2019-05-26T02:57:42.296Z,10.30
2019-05-26T03:00:12.135Z,10.30
2019-05-26T03:02:40.642Z,10.20
2019-05-26T03:05:11.405Z,10.10
2019-05-26T03:07:42.938Z,10.10
2019-05-26T03:10:13.491Z,10.10
2019-05-26T03:12:43.262Z,10.10
2019-05-26T03:15:13.536Z,10.10
2019-05-26T03:17:42.721Z,10.10
2019-05-26T03:20:13.531Z,10.10
2019-05-26T03:22:42.448Z,10.00
2019-05-26T03:25:13.042Z,10.00
2019-05-26T03:27:41.600Z,10.00
2019-05-26T03:30:12.069Z,10.00
2019-05-26T03:32:40.522Z,10.00
2019-05-26T03:35:09.458Z,10.00
2019-05-26T03:37:37.890Z,10.00
2019-05-26T03:40:10.356Z,10.10
2019-05-26T03:42:38.786Z,10.10
2019-05-26T03:45:08.446Z,10.20
2019-05-26T03:47:37.020Z,10.20
2019-05-26T03:50:07.361Z,10.20
2019-05-26T03:52:35.798Z,10.30
2019-05-26T03:55:06.066Z,10.20
2019-05-26T03:57:34.495Z,10.30
2019-05-26T04:00:04.762Z,10.30
2019-05-26T04:02:33.271Z,10.40
2019-05-26T04:05:01.699Z,10.50
2019-05-26T04:07:30.200Z,10.50
2019-05-26T04:10:05.601Z,10.60
2019-05-26T04:12:28.778Z,10.70
2019-05-26T04:14:57.383Z,10.90
2019-05-26T04:17:25.837Z,10.90
2019-05-26T04:19:54.249Z,10.90
2019-05-26T04:22:22.682Z,10.90
2019-05-26T04:24:51.106Z,11.00
2019-05-26T04:27:19.607Z,11.00
2019-05-26T04:29:48.783Z,11.20
2019-05-26T04:32:17.216Z,11.30
2019-05-26T04:34:45.680Z,11.30
2019-05-26T04:37:14.108Z,11.40
2019-05-26T04:39:42.543Z,11.50
2019-05-26T04:42:10.977Z,11.60
2019-05-26T04:44:39.401Z,11.60
2019-05-26T04:47:07.824Z,11.60
2019-05-26T04:49:37.611Z,11.70
2019-05-26T04:52:06.375Z,11.70
2019-05-26T04:54:34.804Z,11.80
2019-05-26T04:57:03.315Z,11.90
2019-05-26T04:59:31.813Z,11.90
2019-05-26T05:02:00.246Z,12.10
2019-05-26T05:04:28.670Z,12.60
2019-05-26T05:06:57.107Z,13.10
2019-05-26T05:09:25.616Z,14.20
2019-05-26T05:11:54.049Z,15.00
2019-05-26T05:14:22.495Z,15.40
2019-05-26T05:16:50.995Z,15.70
2019-05-26T05:19:19.423Z,15.40
2019-05-26T05:21:48.771Z,15.20
2019-05-26T05:24:17.302Z,15.00
2019-05-26T05:26:45.743Z,15.20
2019-05-26T05:29:14.194Z,15.60
2019-05-26T05:31:42.618Z,16.50
2019-05-26T05:34:11.048Z,16.10
2019-05-26T05:36:39.471Z,15.90
2019-05-26T05:39:08.483Z,15.90
2019-05-26T05:41:36.901Z,15.40
2019-05-26T05:44:05.415Z,15.20
2019-05-26T05:46:33.833Z,15.20
2019-05-26T05:49:02.265Z,15.20
2019-05-26T05:51:30.694Z,14.80
2019-05-26T05:53:59.143Z,14.70
2019-05-26T05:56:27.559Z,14.70
2019-05-26T05:58:56.072Z,14.60
2019-05-26T06:01:24.493Z,14.60
2019-05-26T06:03:52.926Z,15.00
2019-05-26T06:06:21.367Z,15.40
2019-05-26T06:08:49.800Z,15.70
2019-05-26T06:11:19.300Z,15.80
2019-05-26T06:13:47.779Z,15.70
2019-05-26T06:16:16.288Z,16.00
2019-05-26T06:18:44.780Z,16.00
2019-05-26T06:21:13.214Z,15.90
2019-05-26T06:23:41.744Z,15.50
2019-05-26T06:26:10.174Z,15.50
2019-05-26T06:28:38.604Z,15.60
2019-05-26T06:31:07.044Z,15.70
2019-05-26T06:33:35.478Z,16.00
2019-05-26T06:36:03.981Z,16.30
2019-05-26T06:38:32.426Z,16.00
2019-05-26T06:41:00.855Z,16.10
2019-05-26T06:43:29.296Z,16.00
2019-05-26T06:45:57.729Z,15.90
2019-05-26T06:48:27.046Z,15.90
2019-05-26T06:50:55.768Z,15.80
2019-05-26T06:53:24.187Z,15.70
2019-05-26T06:55:52.623Z,15.80
2019-05-26T06:58:21.035Z,16.00
2019-05-26T07:00:49.494Z,16.20
2019-05-26T07:03:17.957Z,16.50
2019-05-26T07:05:46.488Z,16.80
2019-05-26T07:08:14.972Z,17.30
2019-05-26T07:10:43.412Z,17.90
2019-05-26T07:13:11.876Z,17.80
2019-05-26T07:15:40.363Z,17.40
2019-05-26T07:18:08.788Z,17.40
2019-05-26T07:20:37.240Z,17.40
2019-05-26T07:23:07.221Z,17.30
2019-05-26T07:25:35.872Z,17.30
2019-05-26T07:28:04.504Z,17.20
2019-05-26T07:30:32.988Z,17.10
2019-05-26T07:33:01.433Z,16.90
2019-05-26T07:35:32.927Z,17.10
2019-05-26T07:38:00.071Z,17.20
2019-05-26T07:40:28.551Z,17.00
2019-05-26T07:42:57.009Z,17.10
2019-05-26T07:45:25.437Z,17.00
2019-05-26T07:47:53.863Z,17.30
2019-05-26T07:50:22.291Z,17.40
2019-05-26T07:52:50.733Z,17.30
2019-05-26T07:55:19.225Z,17.20
2019-05-26T07:57:47.649Z,17.30
2019-05-26T08:00:16.531Z,17.30
2019-05-26T08:02:44.966Z,17.40
2019-05-26T08:05:13.939Z,17.40
2019-05-26T08:07:42.375Z,17.40
2019-05-26T08:10:10.947Z,17.50
2019-05-26T08:12:39.369Z,17.60
2019-05-26T08:15:09.047Z,17.40
2019-05-26T08:17:37.476Z,17.60
2019-05-26T08:20:08.157Z,17.40
2019-05-26T08:22:36.611Z,17.40
2019-05-26T08:25:07.035Z,17.60
2019-05-26T08:27:35.469Z,17.80
2019-05-26T08:30:05.819Z,18.00
2019-05-26T08:32:34.259Z,18.30
2019-05-26T08:35:02.682Z,18.50
2019-05-26T08:37:31.113Z,18.60
2019-05-26T08:40:01.172Z,18.50
2019-05-26T08:42:43.837Z,18.70
2019-05-26T08:44:59.794Z,18.80
2019-05-26T08:47:28.299Z,18.60
2019-05-26T08:49:56.709Z,18.60
2019-05-26T08:52:25.157Z,19.10
2019-05-26T08:54:53.586Z,19.30
2019-05-26T08:57:22.013Z,19.20
2019-05-26T08:59:50.437Z,19.60
2019-05-26T09:02:19.412Z,19.70
2019-05-26T09:04:47.847Z,19.90
2019-05-26T09:07:16.352Z,19.90
2019-05-26T09:09:44.776Z,19.70
2019-05-26T09:12:32.562Z,19.60
2019-05-26T09:15:00.984Z,19.70
2019-05-26T09:17:29.416Z,19.70
2019-05-26T09:19:57.863Z,19.70
2019-05-26T09:22:26.292Z,19.70
2019-05-26T09:24:54.718Z,19.30
2019-05-26T09:27:23.167Z,19.00
2019-05-26T09:29:51.608Z,18.90
2019-05-26T09:32:20.049Z,19.10
2019-05-26T09:34:49.392Z,19.30
2019-05-26T09:37:17.824Z,19.60
2019-05-26T09:39:46.274Z,19.70
2019-05-26T09:42:14.754Z,19.90
2019-05-26T09:44:43.235Z,20.20
2019-05-26T09:47:11.707Z,20.20
2019-05-26T09:49:40.152Z,20.00
2019-05-26T09:52:08.609Z,20.20
2019-05-26T09:54:37.039Z,20.40
2019-05-26T09:57:05.548Z,20.50
2019-05-26T09:59:33.968Z,20.80
2019-05-26T10:02:02.445Z,20.70
2019-05-26T10:04:30.925Z,20.80
2019-05-26T10:06:59.373Z,21.10
2019-05-26T10:09:27.848Z,21.70
2019-05-26T10:11:56.280Z,22.00
2019-05-26T10:14:24.704Z,22.60
2019-05-26T10:16:53.151Z,23.30
2019-05-26T10:19:21.577Z,23.70
2019-05-26T10:21:50.013Z,24.10
2019-05-26T10:24:19.365Z,23.80
2019-05-26T10:26:47.818Z,23.90
2019-05-26T10:29:16.249Z,23.80
2019-05-26T10:31:44.671Z,23.70
2019-05-26T10:34:13.801Z,23.90
2019-05-26T10:36:42.316Z,23.50
2019-05-26T10:39:10.756Z,23.70
2019-05-26T10:41:39.180Z,23.70
2019-05-26T10:44:07.611Z,24.40
2019-05-26T10:46:36.032Z,23.70
2019-05-26T10:49:04.736Z,22.70
2019-05-26T10:51:33.164Z,22.70
2019-05-26T10:54:01.610Z,22.90
2019-05-26T10:56:30.041Z,23.60
2019-05-26T10:58:58.474Z,24.30
2019-05-26T11:01:26.897Z,24.40
2019-05-26T11:03:55.347Z,24.00
2019-05-26T11:06:23.802Z,23.90
2019-05-26T11:08:52.293Z,24.50
2019-05-26T11:11:20.728Z,24.20
2019-05-26T11:14:01.793Z,24.50
2019-05-26T11:16:19.745Z,24.70
2019-05-26T11:18:48.180Z,23.90
2019-05-26T11:21:16.623Z,24.10
2019-05-26T11:23:45.065Z,24.10
2019-05-26T11:26:13.483Z,23.70
2019-05-26T11:28:41.916Z,24.00
2019-05-26T11:31:10.352Z,24.10
2019-05-26T11:33:38.803Z,24.10
2019-05-26T11:36:07.221Z,24.50
2019-05-26T11:38:35.664Z,24.80
2019-05-26T11:41:04.086Z,24.60
2019-05-26T11:43:32.518Z,24.40
2019-05-26T11:46:00.945Z,24.10
2019-05-26T11:48:29.392Z,23.70
2019-05-26T11:50:57.862Z,24.30
2019-05-26T11:53:26.317Z,25.00
2019-05-26T11:55:54.815Z,25.30
2019-05-26T11:58:23.244Z,25.10
2019-05-26T12:00:51.678Z,25.30
2019-05-26T12:03:20.109Z,25.10
2019-05-26T12:05:48.540Z,24.60
2019-05-26T12:08:16.969Z,24.30
2019-05-26T12:10:45.468Z,23.70
2019-05-26T12:13:13.888Z,24.30
2019-05-26T12:15:42.319Z,24.10
2019-05-26T12:18:10.740Z,23.80
2019-05-26T12:20:39.196Z,24.20
2019-05-26T12:23:07.611Z,24.60
2019-05-26T12:25:36.048Z,25.00
2019-05-26T12:28:04.472Z,24.70
2019-05-26T12:30:32.909Z,24.90
2019-05-26T12:33:01.337Z,25.40
2019-05-26T12:35:43.200Z,25.30
2019-05-26T12:38:11.982Z,25.50
2019-05-26T12:40:40.488Z,25.90
2019-05-26T12:43:08.904Z,25.80
2019-05-26T12:45:37.444Z,24.80
2019-05-26T12:48:06.084Z,24.40
2019-05-26T12:50:34.659Z,24.30
2019-05-26T12:53:03.165Z,23.60
2019-05-26T12:55:31.613Z,22.70
2019-05-26T12:58:00.035Z,22.90
2019-05-26T13:00:28.470Z,23.90
2019-05-26T13:02:56.910Z,23.30
2019-05-26T13:05:25.670Z,22.70
2019-05-26T13:07:54.107Z,22.60
2019-05-26T13:10:22.792Z,22.90
2019-05-26T13:12:51.226Z,23.20
2019-05-26T13:15:20.667Z,23.60
2019-05-26T13:17:49.846Z,24.30
2019-05-26T13:20:18.930Z,24.40
2019-05-26T13:22:47.355Z,24.10
2019-05-26T13:25:16.424Z,24.40
2019-05-26T13:27:44.838Z,24.70
2019-05-26T13:30:21.130Z,24.60
2019-05-26T13:32:49.854Z,24.40
2019-05-26T13:35:18.547Z,24.90
2019-05-26T13:37:46.964Z,25.00
2019-05-26T13:40:15.579Z,24.80
2019-05-26T13:42:43.992Z,24.80
2019-05-26T13:45:22.532Z,24.30
2019-05-26T13:47:43.318Z,23.90
2019-05-26T13:50:12.485Z,23.50
2019-05-26T13:52:40.924Z,23.60
2019-05-26T13:55:10.105Z,23.50
2019-05-26T13:57:38.518Z,23.30
2019-05-26T14:00:09.380Z,23.10
2019-05-26T14:02:37.837Z,23.00
2019-05-26T14:05:07.807Z,23.40
2019-05-26T14:07:36.303Z,23.20
2019-05-26T14:10:05.974Z,23.10
2019-05-26T14:12:34.410Z,23.40
2019-05-26T14:15:03.012Z,23.40
2019-05-26T14:17:33.256Z,23.30
2019-05-26T14:20:01.935Z,23.50
2019-05-26T14:22:30.359Z,23.60
2019-05-26T14:24:58.796Z,23.30
2019-05-26T14:27:27.215Z,23.30
2019-05-26T14:29:55.632Z,23.30
2019-05-26T14:32:24.072Z,23.50
2019-05-26T14:34:52.497Z,23.50
2019-05-26T14:37:20.922Z,23.20
2019-05-26T14:39:50.181Z,22.80
2019-05-26T14:42:18.783Z,22.70
2019-05-26T14:44:47.206Z,22.80
2019-05-26T14:47:15.653Z,22.90
2019-05-26T14:49:44.067Z,23.00
2019-05-26T14:52:12.523Z,23.10
2019-05-26T14:54:40.943Z,22.90
2019-05-26T14:57:09.378Z,22.80
2019-05-26T14:59:37.811Z,22.90
2019-05-26T15:02:06.246Z,22.90
2019-05-26T15:04:34.690Z,22.80
2019-05-26T15:07:03.120Z,22.80
2019-05-26T15:09:31.546Z,22.80
2019-05-26T15:11:59.981Z,22.90
2019-05-26T15:14:28.424Z,22.80
2019-05-26T15:16:56.908Z,22.90
2019-05-26T15:19:25.332Z,22.90
2019-05-26T15:21:53.820Z,23.20
2019-05-26T15:24:22.302Z,23.10
2019-05-26T15:26:50.744Z,23.10
2019-05-26T15:29:20.083Z,23.20
2019-05-26T15:31:48.540Z,23.30
2019-05-26T15:34:16.967Z,23.40
2019-05-26T15:36:45.395Z,23.50
2019-05-26T15:39:13.818Z,23.50
2019-05-26T15:41:42.259Z,23.40
2019-05-26T15:44:10.677Z,23.30
2019-05-26T15:46:39.112Z,23.20
2019-05-26T15:49:07.536Z,22.90
2019-05-26T15:51:35.968Z,22.80
2019-05-26T15:54:04.723Z,22.70
2019-05-26T15:56:33.158Z,22.70
2019-05-26T15:59:01.581Z,22.70
2019-05-26T16:01:30.035Z,22.80
2019-05-26T16:03:58.459Z,22.80
2019-05-26T16:06:26.893Z,22.70
2019-05-26T16:08:55.314Z,22.80
2019-05-26T16:11:23.747Z,22.80
2019-05-26T16:13:52.195Z,22.80
2019-05-26T16:16:20.642Z,22.90
2019-05-26T16:18:49.073Z,22.80
2019-05-26T16:21:27.626Z,22.80
2019-05-26T16:23:47.683Z,22.60
2019-05-26T16:26:16.186Z,22.70
2019-05-26T16:28:44.683Z,22.60
2019-05-26T16:31:13.095Z,22.70
2019-05-26T16:33:41.529Z,22.70
2019-05-26T16:36:09.950Z,22.70
2019-05-26T16:38:38.387Z,22.70
2019-05-26T16:41:06.958Z,22.60
2019-05-26T16:43:35.428Z,22.60
2019-05-26T16:46:03.975Z,22.50
2019-05-26T16:48:32.533Z,22.50
2019-05-26T16:51:00.990Z,22.40
2019-05-26T16:53:29.481Z,22.30
2019-05-26T16:55:57.900Z,22.30
2019-05-26T16:58:26.366Z,22.30
2019-05-26T17:00:54.790Z,22.40
2019-05-26T17:03:23.227Z,22.40
2019-05-26T17:06:05.241Z,22.40
2019-05-26T17:08:24.501Z,22.30
2019-05-26T17:10:52.928Z,22.20
2019-05-26T17:13:21.361Z,22.20
2019-05-26T17:15:50.351Z,22.20
2019-05-26T17:18:18.832Z,22.10
2019-05-26T17:20:47.245Z,22.00
2019-05-26T17:23:15.693Z,21.90
2019-05-26T17:25:44.112Z,21.90
2019-05-26T17:28:12.573Z,21.80
2019-05-26T17:30:41.142Z,21.80
2019-05-26T17:33:09.581Z,21.80
2019-05-26T17:35:38.000Z,21.70
2019-05-26T17:38:06.440Z,21.70
2019-05-26T17:40:34.862Z,21.70
2019-05-26T17:43:03.297Z,21.70
2019-05-26T17:45:31.727Z,21.60
2019-05-26T17:48:00.191Z,21.60
2019-05-26T17:50:28.606Z,21.60
2019-05-26T17:52:57.040Z,21.60
2019-05-26T17:55:25.455Z,21.60
2019-05-26T17:57:53.965Z,21.60
2019-05-26T18:00:22.566Z,21.60
2019-05-26T18:02:51.155Z,21.60
2019-05-26T18:05:20.497Z,21.60
2019-05-26T18:07:48.911Z,21.60
2019-05-26T18:10:18.325Z,21.60
2019-05-26T18:12:46.825Z,21.60
2019-05-26T18:15:15.395Z,21.50
2019-05-26T18:17:47.342Z,21.50
2019-05-26T18:20:14.424Z,21.50
2019-05-26T18:22:42.977Z,21.40
2019-05-26T18:25:11.736Z,21.40
2019-05-26T18:27:40.158Z,21.40
2019-05-26T18:30:09.249Z,21.40
2019-05-26T18:32:37.686Z,21.30
2019-05-26T18:35:07.267Z,21.30
2019-05-26T18:37:35.711Z,21.20
2019-05-26T18:40:06.086Z,21.20
2019-05-26T18:42:34.516Z,21.10
2019-05-26T18:45:03.020Z,21.10
2019-05-26T18:47:31.443Z,21.10
2019-05-26T18:49:59.880Z,21.10
2019-05-26T18:52:28.371Z,21.00
2019-05-26T18:54:56.803Z,20.90
2019-05-26T18:57:25.233Z,20.80
2019-05-26T18:59:53.668Z,20.80
2019-05-26T19:02:22.108Z,20.70
2019-05-26T19:04:50.664Z,20.60
2019-05-26T19:07:19.082Z,20.50
2019-05-26T19:09:47.512Z,20.40
2019-05-26T19:12:16.112Z,20.30
2019-05-26T19:14:44.556Z,20.30
2019-05-26T19:17:13.071Z,20.20
2019-05-26T19:19:41.493Z,20.10
2019-05-26T19:22:10.016Z,20.00
2019-05-26T19:24:38.450Z,19.80
2019-05-26T19:27:06.896Z,19.70
2019-05-26T19:29:35.320Z,19.60
2019-05-26T19:32:03.739Z,19.60
2019-05-26T19:34:32.213Z,19.50
2019-05-26T19:37:00.662Z,19.40
2019-05-26T19:39:29.167Z,19.30
2019-05-26T19:41:57.592Z,19.20
2019-05-26T19:44:26.016Z,19.10
2019-05-26T19:46:54.455Z,19.00
2019-05-26T19:49:22.930Z,18.80
2019-05-26T19:51:51.363Z,18.70
2019-05-26T19:54:20.721Z,18.70
2019-05-26T19:56:49.229Z,18.60
2019-05-26T19:59:17.666Z,18.60
2019-05-26T20:01:46.122Z,18.50
2019-05-26T20:04:14.619Z,18.50
2019-05-26T20:06:44.068Z,18.50
2019-05-26T20:09:12.665Z,18.50
2019-05-26T20:11:41.101Z,18.50
2019-05-26T20:14:09.562Z,18.40
2019-05-26T20:16:38.037Z,18.20
2019-05-26T20:19:06.548Z,18.20
2019-05-26T20:21:35.000Z,18.20
2019-05-26T20:24:03.435Z,18.10
2019-05-26T20:26:31.868Z,17.90
2019-05-26T20:29:00.312Z,17.90
2019-05-26T20:31:28.741Z,17.90
2019-05-26T20:33:57.182Z,17.80
2019-05-26T20:36:25.638Z,17.80
2019-05-26T20:38:54.067Z,17.70
2019-05-26T20:41:22.496Z,17.70
2019-05-26T20:43:50.935Z,17.70
2019-05-26T20:46:19.360Z,17.70
2019-05-26T20:48:47.783Z,17.70
2019-05-26T20:51:16.237Z,17.60
2019-05-26T20:53:44.654Z,17.60
2019-05-26T20:56:13.080Z,17.50
2019-05-26T20:58:41.512Z,17.50
2019-05-26T21:01:09.947Z,17.50
2019-05-26T21:03:38.423Z,17.50
2019-05-26T21:06:06.848Z,17.40
2019-05-26T21:08:35.276Z,17.40
2019-05-26T21:11:03.781Z,17.40
2019-05-26T21:13:32.205Z,17.30
2019-05-26T21:16:00.639Z,17.40
2019-05-26T21:18:29.059Z,17.50
2019-05-26T21:20:57.501Z,17.50
2019-05-26T21:23:25.924Z,17.60
2019-05-26T21:25:54.366Z,17.60
2019-05-26T21:28:25.650Z,17.60
2019-05-26T21:30:54.080Z,17.60
2019-05-26T21:33:22.500Z,17.70
2019-05-26T21:35:50.951Z,17.70
2019-05-26T21:38:19.439Z,17.70
2019-05-26T21:40:47.901Z,17.70
2019-05-26T21:43:16.327Z,17.70
2019-05-26T21:45:44.743Z,17.80
2019-05-26T21:48:13.191Z,17.80
2019-05-26T21:50:41.607Z,17.70
2019-05-26T21:53:10.041Z,17.70
2019-05-26T21:55:38.460Z,17.70
2019-05-26T21:58:06.894Z,17.70
2019-05-26T22:00:39.923Z,17.70
2019-05-26T22:03:08.396Z,17.70
2019-05-26T22:05:36.807Z,17.60
2019-05-26T22:08:05.253Z,17.70
2019-05-26T22:10:33.663Z,17.60
2019-05-26T22:13:02.100Z,17.60
2019-05-26T22:15:30.535Z,17.60
2019-05-26T22:17:59.001Z,17.60
2019-05-26T22:20:27.424Z,17.50
2019-05-26T22:22:55.849Z,17.50
2019-05-26T22:25:24.275Z,17.50
2019-05-26T22:27:52.781Z,17.50
2019-05-26T22:30:21.292Z,17.50
2019-05-26T22:32:49.868Z,17.50
2019-05-26T22:35:18.285Z,17.50
2019-05-26T22:37:46.736Z,17.40
2019-05-26T22:40:15.608Z,17.40
2019-05-26T22:42:44.051Z,17.40
2019-05-26T22:45:14.090Z,17.40
2019-05-26T22:47:42.576Z,17.30
2019-05-26T22:50:11.248Z,17.20
2019-05-26T22:52:39.682Z,17.20
2019-05-26T22:55:09.546Z,17.20
2019-05-26T22:57:37.988Z,17.00
2019-05-26T23:00:08.043Z,17.00
2019-05-26T23:02:36.480Z,16.90
2019-05-26T23:05:06.866Z,16.80
2019-05-26T23:07:35.299Z,16.70
2019-05-26T23:10:06.158Z,16.60
2019-05-26T23:12:34.602Z,16.60
2019-05-26T23:15:04.088Z,16.50
2019-05-26T23:17:32.540Z,16.50
2019-05-26T23:20:01.038Z,16.40
2019-05-26T23:22:29.464Z,16.30
2019-05-26T23:24:57.887Z,16.30
2019-05-26T23:27:26.307Z,16.30
2019-05-26T23:29:54.736Z,16.20
2019-05-26T23:32:23.157Z,16.10
2019-05-26T23:34:51.595Z,16.10
2019-05-26T23:37:20.932Z,16.10
2019-05-26T23:39:49.369Z,16.10
2019-05-26T23:42:17.792Z,16.10
2019-05-26T23:44:46.229Z,16.10
2019-05-26T23:47:14.662Z,16.00
2019-05-26T23:49:43.138Z,16.00
2019-05-26T23:52:11.587Z,16.10
2019-05-26T23:54:40.024Z,16.10
2019-05-26T23:57:08.439Z,16.10
2019-05-26T23:59:36.867Z,16.10
